Terminal Aerodrome Forecast
Issued by NWS

Home | Current Version | Previous Version | Text Only | Print | Product List | Glossary On
Versions: 1 2 3 4 5 6 7 8 9 10 11 12 13 14
000
FTUS45 KRIW 251300 AAA
TAFRKS
TAF AMD
KRKS 251324Z 2513/2612 VRB05KT P6SM VCSH SCT014 OVC025
      TEMPO 2513/2515 BKN014
     FM251600 24007KT P6SM VCSH SCT030 BKN060
     FM252000 26012KT P6SM VCSH BKN060
     FM260400 23008KT P6SM SCT060 BKN100=

USA.gov is the U.S. government's official web portal to all federal, state and local government web resources and services.